Aérodrome :
LOGIN :

S'inscrire | Disclaimer

   EN    FR    IT 

 










Légende :    VFR   VFR Marginal   IFR   IFR Intensif   IFR Très Intensif
Visi : 
Plafond : 
>= 8 km
>= 3000ft
5 à 8 km
1000 à 3000 ft
1500m à 5 km
500 à 1000 ft
800 à 1500m
200 à 500 ft
< 800m
< 200 ft
Symboles :   Orages  Brouillard  Fortes neiges  Fortes précipitations  Vent > 20 kt
SIGMETs :   Divers  Orages  Givrage  Turbulence  Onde Orograph.  Cendres Volcan.







- Altitude de l'aérodrome : 17 ft
- Code IATA : GRS


LIRS - Grosseto

METARs EXPIRÉS :
  • 241355Z 23012KT CAVOK 32/19 Q1016 RMK SKC VIS MIN 9999 WIND THR03 23011KT WIND THR21 23011KT BLU
  • 241255Z 23011KT CAVOK 32/23 Q1016 RMK SKC VIS MIN 9999 WIND THR03 24012KT WIND THR21 24012KT BLU
  • 241155Z 23010KT CAVOK 33/16 Q1017 RMK SKC VIS MIN 9999 WIND THR03 22010KT WIND THR21 24011KT BLU

Prévision TAF périmée.
Pas de NOTAMs connus pour ce terrain.



MET'MAP, la Météo Aéronautique d'un coup d'oeil ! - Copyright ORBIFLY Décembre 2007 - Disclaimer

ORBIFLY MET'MAP TEAM :

Programmation & Développement : Alexandra Zaïnal
Conception & Développement : Baudouin d'Aumeries
Co-Programmation & Développement : Marc-Olivier Méhu
Soutien technique & logistique : Manuel Goepfert

Contact : metmap@orbifly.com




SOURCES & CREDITS :

   NOAA